createdAt,value
2023-05-21T00:00:31.652Z,2067.00
2023-05-21T00:01:31.732Z,2077.00
2023-05-21T00:02:31.835Z,2038.00
2023-05-21T00:03:31.902Z,2018.00
2023-05-21T00:04:31.899Z,2020.00
2023-05-21T00:05:31.974Z,2029.00
2023-05-21T00:06:32.074Z,2041.00
2023-05-21T00:07:32.078Z,1992.00
2023-05-21T00:08:32.155Z,2006.00
2023-05-21T00:09:32.183Z,2015.00
2023-05-21T00:10:32.221Z,2034.00
2023-05-21T00:11:32.193Z,2040.00
2023-05-21T00:12:32.210Z,2040.00
2023-05-21T00:13:32.241Z,2025.00
2023-05-21T00:14:32.242Z,2011.00
2023-05-21T00:15:32.266Z,2014.00
2023-05-21T00:16:32.354Z,2017.00
2023-05-21T00:17:32.347Z,2010.00
2023-05-21T00:18:32.493Z,1997.00
2023-05-21T00:19:32.382Z,2002.00
2023-05-21T00:20:32.525Z,2024.00
2023-05-21T00:21:32.360Z,2008.00
2023-05-21T00:22:32.365Z,1978.00
2023-05-21T00:23:32.381Z,1958.00
2023-05-21T00:24:32.412Z,1936.00
2023-05-21T00:25:32.438Z,1893.00
2023-05-21T00:26:32.451Z,1871.00
2023-05-21T00:27:32.485Z,1891.00
2023-05-21T00:28:32.503Z,1887.00
2023-05-21T00:29:32.552Z,1865.00
2023-05-21T00:30:32.839Z,1887.00
2023-05-21T00:31:32.781Z,1913.00
2023-05-21T00:32:32.751Z,1929.00
2023-05-21T00:33:32.753Z,1928.00
2023-05-21T00:34:32.728Z,1877.00
2023-05-21T00:35:32.779Z,1924.00
2023-05-21T00:36:32.778Z,1905.00
2023-05-21T00:37:32.806Z,1897.00
2023-05-21T00:38:32.851Z,1884.00
2023-05-21T00:39:32.865Z,1883.00
2023-05-21T00:40:32.896Z,1850.00
2023-05-21T00:41:32.912Z,1887.00
2023-05-21T00:42:32.918Z,1933.00
2023-05-21T00:43:32.933Z,1909.00
2023-05-21T00:44:32.960Z,1848.00
2023-05-21T00:45:33.051Z,1863.00
2023-05-21T00:46:33.047Z,1833.00
2023-05-21T00:47:33.092Z,1889.00
2023-05-21T00:48:33.045Z,1816.00
2023-05-21T00:49:33.074Z,1855.00
2023-05-21T00:50:33.112Z,1838.00
2023-05-21T00:51:33.115Z,1859.00
2023-05-21T00:52:33.177Z,1820.00
2023-05-21T00:53:33.344Z,1863.00
2023-05-21T00:54:33.286Z,1812.00
2023-05-21T00:55:33.475Z,1791.00
2023-05-21T00:56:33.425Z,1833.00
2023-05-21T00:57:33.462Z,1874.00
2023-05-21T00:58:33.501Z,1876.00
2023-05-21T00:59:33.506Z,1856.00
2023-05-21T01:00:33.535Z,1864.00
2023-05-21T01:01:33.624Z,1847.00
2023-05-21T01:02:33.710Z,1851.00
2023-05-21T01:03:33.693Z,1839.00
2023-05-21T01:04:33.778Z,1853.00
2023-05-21T01:05:34.005Z,1855.00
2023-05-21T01:06:33.821Z,1868.00
2023-05-21T01:07:33.875Z,1890.00
2023-05-21T01:08:33.904Z,1907.00
2023-05-21T01:09:33.980Z,1890.00
2023-05-21T01:10:34.029Z,1892.00
2023-05-21T01:11:34.089Z,1885.00
2023-05-21T01:12:34.133Z,1878.00
2023-05-21T01:13:34.159Z,1929.00
2023-05-21T01:14:34.185Z,1920.00
2023-05-21T01:15:34.400Z,1948.00
2023-05-21T01:16:34.295Z,1952.00
2023-05-21T01:17:34.532Z,1967.00
2023-05-21T01:18:34.357Z,1944.00
2023-05-21T01:19:34.338Z,1923.00
2023-05-21T01:20:34.361Z,1957.00
2023-05-21T01:21:34.354Z,1978.00
2023-05-21T01:22:34.405Z,1983.00
2023-05-21T01:23:34.408Z,1984.00
2023-05-21T01:24:34.455Z,1978.00
2023-05-21T01:25:34.722Z,1956.00
2023-05-21T01:26:34.581Z,1949.00
2023-05-21T01:27:34.629Z,1941.00
2023-05-21T01:28:34.626Z,1978.00
2023-05-21T01:29:34.678Z,1964.00
2023-05-21T01:30:34.685Z,1988.00
2023-05-21T01:31:34.715Z,1975.00
2023-05-21T01:32:34.768Z,1967.00
2023-05-21T01:33:34.831Z,1973.00
2023-05-21T01:34:34.781Z,1948.00
2023-05-21T01:35:34.947Z,1932.00
2023-05-21T01:36:34.842Z,1926.00
2023-05-21T01:37:34.865Z,1912.00
2023-05-21T01:38:34.896Z,1872.00
2023-05-21T01:39:34.924Z,1888.00
2023-05-21T01:40:34.939Z,1909.00
2023-05-21T01:41:35.027Z,1913.00
2023-05-21T01:42:35.010Z,1950.00
2023-05-21T01:43:35.040Z,1993.00
2023-05-21T01:44:35.081Z,2007.00
2023-05-21T01:45:35.279Z,2007.00
2023-05-21T01:46:35.315Z,1994.00
2023-05-21T01:47:35.192Z,2000.00
2023-05-21T01:48:35.240Z,1990.00
2023-05-21T01:49:35.245Z,1910.00
2023-05-21T01:50:35.285Z,1903.00
2023-05-21T01:51:35.297Z,1930.00
2023-05-21T01:52:35.324Z,1926.00
2023-05-21T01:53:35.350Z,1939.00
2023-05-21T01:54:35.413Z,1944.00
2023-05-21T01:55:35.522Z,1940.00
2023-05-21T01:56:35.490Z,1933.00
2023-05-21T01:57:35.560Z,1922.00
2023-05-21T01:58:35.542Z,1952.00
2023-05-21T01:59:35.567Z,1949.00
2023-05-21T02:00:35.566Z,1965.00
2023-05-21T02:01:35.616Z,1904.00
2023-05-21T02:02:35.662Z,1941.00
2023-05-21T02:03:35.659Z,1927.00
2023-05-21T02:04:35.570Z,1938.00
2023-05-21T02:05:35.870Z,1941.00
2023-05-21T02:06:35.599Z,1966.00
2023-05-21T02:07:35.581Z,1976.00
2023-05-21T02:08:35.604Z,1973.00
2023-05-21T02:09:35.616Z,1980.00
2023-05-21T02:10:35.612Z,1975.00
2023-05-21T02:11:35.618Z,1930.00
2023-05-21T02:12:35.642Z,1981.00
2023-05-21T02:13:35.643Z,1985.00
2023-05-21T02:14:35.659Z,1988.00
2023-05-21T02:15:36.036Z,1976.00
2023-05-21T02:16:35.738Z,2014.00
2023-05-21T02:17:35.717Z,2001.00
2023-05-21T02:18:35.787Z,1921.00
2023-05-21T02:19:35.718Z,1904.00
2023-05-21T02:20:35.718Z,1909.00
2023-05-21T02:21:35.741Z,1963.00
2023-05-21T02:22:35.807Z,1969.00
2023-05-21T02:23:35.798Z,1995.00
2023-05-21T02:24:35.832Z,1993.00
2023-05-21T02:25:35.999Z,2001.00
2023-05-21T02:26:35.931Z,1998.00
2023-05-21T02:27:35.967Z,2005.00
2023-05-21T02:28:35.999Z,1999.00
2023-05-21T02:29:36.042Z,1967.00
2023-05-21T02:30:36.077Z,1968.00
2023-05-21T02:31:36.084Z,1999.00
2023-05-21T02:32:36.101Z,1995.00
2023-05-21T02:33:36.068Z,1961.00
2023-05-21T02:34:36.073Z,1965.00
2023-05-21T02:35:36.180Z,2018.00
2023-05-21T02:36:36.057Z,2030.00
2023-05-21T02:37:36.042Z,1977.00
2023-05-21T02:38:36.072Z,1988.00
2023-05-21T02:39:36.076Z,1994.00
2023-05-21T02:40:36.047Z,2040.00
2023-05-21T02:41:36.076Z,1997.00
2023-05-21T02:42:36.389Z,1972.00
2023-05-21T02:43:36.047Z,2023.00
2023-05-21T02:44:36.044Z,2022.00
2023-05-21T02:45:36.284Z,2012.00
2023-05-21T02:46:36.074Z,1998.00
2023-05-21T02:47:36.235Z,1991.00
2023-05-21T02:48:36.158Z,2010.00
2023-05-21T02:49:36.228Z,2009.00
2023-05-21T02:50:36.209Z,2016.00
2023-05-21T02:51:36.252Z,2013.00
2023-05-21T02:52:36.298Z,1981.00
2023-05-21T02:53:36.330Z,1960.00
2023-05-21T02:54:36.373Z,1968.00
2023-05-21T02:55:36.637Z,1998.00
2023-05-21T02:56:36.474Z,2005.00
2023-05-21T02:57:36.472Z,1974.00
2023-05-21T02:58:36.478Z,1983.00
2023-05-21T02:59:36.530Z,1944.00
2023-05-21T03:00:36.590Z,1918.00
2023-05-21T03:01:36.710Z,1929.00
2023-05-21T03:02:36.809Z,1939.00
2023-05-21T03:03:36.804Z,1907.00
2023-05-21T03:04:36.721Z,1917.00
2023-05-21T03:05:36.953Z,1934.00
2023-05-21T03:06:36.798Z,1943.00
2023-05-21T03:07:36.838Z,1958.00
2023-05-21T03:08:36.820Z,1952.00
2023-05-21T03:09:36.829Z,1991.00
2023-05-21T03:10:36.857Z,1896.00
2023-05-21T03:11:36.836Z,1923.00
2023-05-21T03:12:36.849Z,1889.00
2023-05-21T03:13:36.893Z,1860.00
2023-05-21T03:14:36.874Z,1923.00
2023-05-21T03:15:37.036Z,1933.00
2023-05-21T03:16:36.854Z,1902.00
2023-05-21T03:17:36.913Z,1889.00
2023-05-21T03:18:36.946Z,1867.00
2023-05-21T03:19:36.968Z,1862.00
2023-05-21T03:20:37.021Z,1872.00
2023-05-21T03:21:37.062Z,1875.00
2023-05-21T03:22:37.099Z,1798.00
2023-05-21T03:23:37.137Z,1855.00
2023-05-21T03:24:37.200Z,1872.00
2023-05-21T03:25:37.335Z,1906.00
2023-05-21T03:26:37.282Z,1882.00
2023-05-21T03:27:37.305Z,1895.00
2023-05-21T03:28:37.304Z,1914.00
2023-05-21T03:29:37.306Z,1856.00
2023-05-21T03:30:37.361Z,1899.00
2023-05-21T03:31:37.453Z,1893.00
2023-05-21T03:32:37.458Z,1872.00
2023-05-21T03:33:37.475Z,1900.00
2023-05-21T03:34:37.490Z,1942.00
2023-05-21T03:35:37.816Z,1982.00
2023-05-21T03:36:37.576Z,1976.00
2023-05-21T03:37:37.623Z,1982.00
2023-05-21T03:38:37.674Z,1988.00
2023-05-21T03:39:37.718Z,2029.00
2023-05-21T03:40:37.778Z,2020.00
2023-05-21T03:41:37.822Z,2007.00
2023-05-21T03:42:37.874Z,2006.00
2023-05-21T03:43:37.901Z,1998.00
2023-05-21T03:44:37.931Z,1992.00
2023-05-21T03:45:38.385Z,1974.00
2023-05-21T03:46:38.236Z,1975.00
2023-05-21T03:47:38.154Z,1991.00
2023-05-21T03:48:38.148Z,1983.00
2023-05-21T03:49:38.221Z,1976.00
2023-05-21T03:50:38.249Z,1988.00
2023-05-21T03:51:38.284Z,1985.00
2023-05-21T03:52:38.368Z,1957.00
2023-05-21T03:53:38.373Z,1925.00
2023-05-21T03:54:38.380Z,1956.00
2023-05-21T03:55:38.433Z,1962.00
2023-05-21T03:56:38.386Z,1957.00
2023-05-21T03:57:38.373Z,1959.00
2023-05-21T03:58:38.401Z,1972.00
2023-05-21T03:59:38.403Z,1983.00
2023-05-21T04:00:38.420Z,1999.00
2023-05-21T04:01:38.392Z,1973.00
2023-05-21T04:02:38.506Z,2006.00
2023-05-21T04:03:40.797Z,2002.00
2023-05-21T04:04:38.680Z,1976.00
2023-05-21T04:05:38.768Z,1971.00
2023-05-21T04:06:38.607Z,1971.00
2023-05-21T04:07:38.618Z,1961.00
2023-05-21T04:08:38.659Z,1954.00
2023-05-21T04:09:38.709Z,1971.00
2023-05-21T04:10:38.750Z,1996.00
2023-05-21T04:11:38.789Z,1988.00
2023-05-21T04:12:38.852Z,1988.00
2023-05-21T04:13:38.880Z,1966.00
2023-05-21T04:14:38.916Z,1997.00
2023-05-21T04:15:39.176Z,1939.00
2023-05-21T04:16:39.085Z,1936.00
2023-05-21T04:17:39.056Z,1943.00
2023-05-21T04:18:39.066Z,1937.00
2023-05-21T04:19:39.156Z,1925.00
2023-05-21T04:20:39.158Z,1913.00
2023-05-21T04:21:39.261Z,1916.00
2023-05-21T04:22:39.226Z,1951.00
2023-05-21T04:23:39.271Z,1943.00
2023-05-21T04:24:39.324Z,1915.00
2023-05-21T04:25:39.314Z,1917.00
2023-05-21T04:26:39.334Z,1965.00
2023-05-21T04:27:39.361Z,1969.00
2023-05-21T04:28:39.398Z,1973.00
2023-05-21T04:29:39.440Z,1994.00
2023-05-21T04:30:39.469Z,1980.00
2023-05-21T04:31:39.557Z,2016.00
2023-05-21T04:32:39.613Z,2007.00
2023-05-21T04:33:39.538Z,2028.00
2023-05-21T04:34:39.543Z,1996.00
2023-05-21T04:35:39.560Z,2029.00
2023-05-21T04:36:39.589Z,2015.00
2023-05-21T04:37:39.635Z,2043.00
2023-05-21T04:38:39.672Z,2018.00
2023-05-21T04:39:39.710Z,2033.00
2023-05-21T04:40:39.720Z,2029.00
2023-05-21T04:41:39.756Z,2004.00
2023-05-21T04:42:39.788Z,2009.00
2023-05-21T04:43:39.796Z,2019.00
2023-05-21T04:44:39.825Z,2038.00
2023-05-21T04:45:39.871Z,1989.00
2023-05-21T04:46:41.761Z,1972.00
2023-05-21T04:47:39.964Z,1936.00
2023-05-21T04:48:39.938Z,1941.00
2023-05-21T04:49:39.964Z,1866.00
2023-05-21T04:50:39.994Z,1893.00
2023-05-21T04:51:40.030Z,1836.00
2023-05-21T04:52:40.023Z,1877.00
2023-05-21T04:53:40.040Z,1839.00
2023-05-21T04:54:40.083Z,1834.00
2023-05-21T04:55:40.170Z,1848.00
2023-05-21T04:56:40.177Z,1839.00
2023-05-21T04:57:40.264Z,1839.00
2023-05-21T04:58:40.316Z,1855.00
2023-05-21T04:59:40.355Z,1840.00
2023-05-21T05:00:40.445Z,1873.00
2023-05-21T05:01:40.477Z,1899.00
2023-05-21T05:02:40.560Z,1855.00
2023-05-21T05:03:40.562Z,1793.00
2023-05-21T05:04:40.600Z,1774.00
2023-05-21T05:05:40.625Z,1761.00
2023-05-21T05:06:40.666Z,1824.00
2023-05-21T05:07:40.694Z,1833.00
2023-05-21T05:08:40.747Z,1846.00
2023-05-21T05:09:40.742Z,1857.00
2023-05-21T05:10:40.767Z,1892.00
2023-05-21T05:11:40.827Z,1897.00
2023-05-21T05:12:40.857Z,1884.00
2023-05-21T05:13:41.289Z,1894.00
2023-05-21T05:14:40.962Z,1881.00
2023-05-21T05:15:41.016Z,1858.00
2023-05-21T05:16:41.121Z,1874.00
2023-05-21T05:17:41.175Z,1836.00
2023-05-21T05:18:41.216Z,1838.00
2023-05-21T05:19:41.258Z,1870.00
2023-05-21T05:20:41.300Z,1837.00
2023-05-21T05:21:41.344Z,1840.00
2023-05-21T05:22:41.385Z,1831.00
2023-05-21T05:23:41.424Z,1855.00
2023-05-21T05:24:41.480Z,1864.00
2023-05-21T05:25:41.576Z,1921.00
2023-05-21T05:26:41.598Z,1924.00
2023-05-21T05:27:41.571Z,1961.00
2023-05-21T05:28:41.610Z,1985.00
2023-05-21T05:29:41.608Z,1975.00
2023-05-21T05:30:41.655Z,1949.00
2023-05-21T05:31:41.604Z,1963.00
2023-05-21T05:32:41.637Z,1970.00
2023-05-21T05:33:41.609Z,1965.00
2023-05-21T05:34:41.698Z,1902.00
2023-05-21T05:35:41.703Z,1884.00
2023-05-21T05:36:41.744Z,1862.00
2023-05-21T05:37:41.704Z,1853.00
2023-05-21T05:38:41.712Z,1867.00
2023-05-21T05:39:41.754Z,1854.00
2023-05-21T05:40:41.815Z,1883.00
2023-05-21T05:41:41.894Z,1832.00
2023-05-21T05:42:41.955Z,1812.00
2023-05-21T05:43:42.004Z,1807.00
2023-05-21T05:44:42.071Z,1828.00
2023-05-21T05:45:42.117Z,1849.00
2023-05-21T05:46:42.297Z,1827.00
2023-05-21T05:47:42.257Z,1814.00
2023-05-21T05:48:42.262Z,1808.00
2023-05-21T05:49:42.329Z,1774.00
2023-05-21T05:50:42.397Z,1731.00
2023-05-21T05:51:42.434Z,1679.00
2023-05-21T05:52:42.512Z,1620.00
2023-05-21T05:53:42.531Z,1581.00
2023-05-21T05:54:42.602Z,1532.00
2023-05-21T05:55:42.652Z,1485.00
2023-05-21T05:56:42.732Z,1438.00
2023-05-21T05:57:44.951Z,1510.00
2023-05-21T05:58:42.824Z,1463.00
2023-05-21T05:59:42.890Z,1433.00
2023-05-21T06:00:42.947Z,1352.00
2023-05-21T06:01:43.024Z,1352.00
2023-05-21T06:02:43.133Z,1322.00
2023-05-21T06:03:43.210Z,1265.00
2023-05-21T06:04:43.141Z,1250.00
2023-05-21T06:05:43.195Z,1372.00
2023-05-21T06:06:43.180Z,1360.00
2023-05-21T06:07:43.202Z,1321.00
2023-05-21T06:08:43.252Z,1397.00
2023-05-21T06:09:43.275Z,1413.00
2023-05-21T06:10:43.300Z,1377.00
2023-05-21T06:11:43.324Z,1436.00
2023-05-21T06:12:43.364Z,1358.00
2023-05-21T06:13:43.381Z,1364.00
2023-05-21T06:14:45.064Z,1355.00
2023-05-21T06:15:43.555Z,1364.00
2023-05-21T06:16:43.445Z,1336.00
2023-05-21T06:17:43.499Z,1296.00
2023-05-21T06:18:43.538Z,1280.00
2023-05-21T06:19:43.504Z,1319.00
2023-05-21T06:20:43.651Z,1316.00
2023-05-21T06:21:43.547Z,1447.00
2023-05-21T06:22:43.580Z,1455.00
2023-05-21T06:23:43.579Z,1427.00
2023-05-21T06:24:43.606Z,1456.00
2023-05-21T06:25:43.638Z,1380.00
2023-05-21T06:26:43.646Z,1320.00
2023-05-21T06:27:43.678Z,1379.00
2023-05-21T06:28:43.701Z,1401.00
2023-05-21T06:29:43.880Z,1286.00
2023-05-21T06:30:43.736Z,1317.00
2023-05-21T06:31:43.710Z,1225.00
2023-05-21T06:32:43.842Z,1166.00
2023-05-21T06:33:43.864Z,1146.00
2023-05-21T06:34:43.771Z,1177.00
2023-05-21T06:35:43.848Z,1174.00
2023-05-21T06:36:43.794Z,1238.00
2023-05-21T06:37:43.787Z,1250.00
2023-05-21T06:38:43.831Z,1233.00
2023-05-21T06:39:43.908Z,1232.00
2023-05-21T06:40:43.929Z,1206.00
2023-05-21T06:41:43.927Z,1222.00
2023-05-21T06:42:43.991Z,1198.00
2023-05-21T06:43:43.990Z,1171.00
2023-05-21T06:44:44.023Z,1257.00
2023-05-21T06:45:44.045Z,1194.00
2023-05-21T06:46:44.038Z,1253.00
2023-05-21T06:47:44.102Z,1245.00
2023-05-21T06:48:44.088Z,1271.00
2023-05-21T06:49:44.081Z,1291.00
2023-05-21T06:50:44.080Z,1386.00
2023-05-21T06:51:44.121Z,1359.00
2023-05-21T06:52:44.152Z,1323.00
2023-05-21T06:53:44.197Z,1388.00
2023-05-21T06:54:44.219Z,1368.00
2023-05-21T06:55:44.250Z,1368.00
2023-05-21T06:56:44.272Z,1413.00
2023-05-21T06:57:44.370Z,1444.00
2023-05-21T06:58:44.332Z,1398.00
2023-05-21T06:59:44.357Z,1477.00
2023-05-21T07:00:44.400Z,1479.00
2023-05-21T07:01:44.591Z,1448.00
2023-05-21T07:02:44.468Z,1380.00
2023-05-21T07:03:44.605Z,1428.00
2023-05-21T07:04:44.547Z,1440.00
2023-05-21T07:05:44.558Z,1438.00
2023-05-21T07:06:44.586Z,1481.00
2023-05-21T07:07:44.647Z,1513.00
2023-05-21T07:08:44.721Z,1491.00
2023-05-21T07:09:44.753Z,1495.00
2023-05-21T07:10:44.820Z,1510.00
2023-05-21T07:11:45.017Z,1467.00
2023-05-21T07:12:45.010Z,1474.00
2023-05-21T07:13:44.995Z,1508.00
2023-05-21T07:14:45.156Z,1494.00
2023-05-21T07:15:45.109Z,1475.00
2023-05-21T07:16:45.200Z,1521.00
2023-05-21T07:17:45.248Z,1518.00
2023-05-21T07:18:45.294Z,1506.00
2023-05-21T07:19:45.358Z,1423.00
2023-05-21T07:20:45.402Z,1495.00
2023-05-21T07:21:45.463Z,1457.00
2023-05-21T07:22:45.530Z,1479.00
2023-05-21T07:23:45.629Z,1509.00
2023-05-21T07:24:45.572Z,1520.00
2023-05-21T07:25:45.577Z,1548.00
2023-05-21T07:26:45.568Z,1535.00
2023-05-21T07:27:45.571Z,1533.00
2023-05-21T07:28:45.592Z,1523.00
2023-05-21T07:29:45.575Z,1521.00
2023-05-21T07:30:45.639Z,1500.00
2023-05-21T07:31:45.689Z,1496.00
2023-05-21T07:32:45.745Z,1479.00
2023-05-21T07:33:45.708Z,1409.00
2023-05-21T07:34:45.733Z,1441.00
2023-05-21T07:35:45.698Z,1507.00
2023-05-21T07:36:45.705Z,1498.00
2023-05-21T07:37:45.791Z,1485.00
2023-05-21T07:38:45.750Z,1472.00
2023-05-21T07:39:45.764Z,1418.00
2023-05-21T07:40:45.807Z,1370.00
2023-05-21T07:41:45.812Z,1442.00
2023-05-21T07:42:45.865Z,1301.00
2023-05-21T07:43:45.895Z,1367.00
2023-05-21T07:44:45.907Z,1377.00
2023-05-21T07:45:45.939Z,1282.00
2023-05-21T07:46:46.027Z,1311.00
2023-05-21T07:47:46.038Z,1347.00
2023-05-21T07:48:46.133Z,1326.00
2023-05-21T07:49:46.140Z,1365.00
2023-05-21T07:50:46.171Z,1320.00
2023-05-21T07:51:46.110Z,1342.00
2023-05-21T07:52:46.268Z,1248.00
2023-05-21T07:53:46.275Z,1308.00
2023-05-21T07:54:46.286Z,1250.00
2023-05-21T07:55:46.402Z,1254.00
2023-05-21T07:56:46.343Z,1159.00
2023-05-21T07:57:46.330Z,1116.00
2023-05-21T07:58:46.347Z,1087.00
2023-05-21T07:59:46.339Z,969.00
2023-05-21T08:00:46.336Z,981.00
2023-05-21T08:01:46.341Z,916.00
2023-05-21T08:02:46.440Z,869.00
2023-05-21T08:03:46.485Z,850.00
2023-05-21T08:04:46.431Z,920.00
2023-05-21T08:05:46.389Z,938.00
2023-05-21T08:06:46.416Z,949.00
2023-05-21T08:07:46.407Z,1041.00
2023-05-21T08:08:46.421Z,1004.00
2023-05-21T08:09:46.478Z,1077.00
2023-05-21T08:10:46.476Z,1056.00
2023-05-21T08:11:46.511Z,1023.00
2023-05-21T08:12:46.550Z,1026.00
2023-05-21T08:13:46.554Z,993.00
2023-05-21T08:14:46.584Z,987.00
2023-05-21T08:15:46.598Z,998.00
2023-05-21T08:16:46.728Z,957.00
2023-05-21T08:17:46.732Z,950.00
2023-05-21T08:18:46.810Z,930.00
2023-05-21T08:19:46.784Z,903.00
2023-05-21T08:20:46.827Z,867.00
2023-05-21T08:21:46.839Z,953.00
2023-05-21T08:22:46.882Z,1002.00
2023-05-21T08:23:46.858Z,1074.00
2023-05-21T08:24:46.885Z,1085.00
2023-05-21T08:25:46.898Z,1153.00
2023-05-21T08:26:46.915Z,1119.00
2023-05-21T08:27:46.931Z,1122.00
2023-05-21T08:28:46.970Z,1127.00
2023-05-21T08:29:46.959Z,1133.00
2023-05-21T08:30:47.003Z,1179.00
2023-05-21T08:31:47.068Z,1202.00
2023-05-21T08:32:47.198Z,1199.00
2023-05-21T08:33:47.181Z,1161.00
2023-05-21T08:34:47.229Z,1226.00
2023-05-21T08:35:47.294Z,1198.00
2023-05-21T08:36:47.342Z,1189.00
2023-05-21T08:37:47.387Z,1186.00
2023-05-21T08:38:47.381Z,1180.00
2023-05-21T08:39:47.403Z,1180.00
2023-05-21T08:40:47.391Z,1187.00
2023-05-21T08:41:47.406Z,1211.00
2023-05-21T08:42:47.429Z,1189.00
2023-05-21T08:43:50.166Z,1178.00
2023-05-21T08:44:47.468Z,1149.00
2023-05-21T08:45:47.462Z,1118.00
2023-05-21T08:46:47.428Z,1140.00
2023-05-21T08:47:47.468Z,1123.00
2023-05-21T08:48:47.444Z,1137.00
2023-05-21T08:49:47.417Z,1185.00
2023-05-21T08:50:47.407Z,1185.00
2023-05-21T08:51:47.416Z,1171.00
2023-05-21T08:52:47.423Z,1143.00
2023-05-21T08:53:47.476Z,1138.00
2023-05-21T08:54:47.393Z,1106.00
2023-05-21T08:55:47.370Z,1105.00
2023-05-21T08:56:47.388Z,1105.00
2023-05-21T08:57:47.384Z,1111.00
2023-05-21T08:58:47.384Z,1109.00
2023-05-21T08:59:47.356Z,1104.00
2023-05-21T09:00:47.355Z,1092.00
2023-05-21T09:01:47.366Z,1091.00
2023-05-21T09:02:47.419Z,1090.00
2023-05-21T09:03:47.380Z,1105.00
2023-05-21T09:04:47.328Z,1070.00
2023-05-21T09:05:47.305Z,1080.00
2023-05-21T09:06:47.319Z,1075.00
2023-05-21T09:07:47.305Z,1081.00
2023-05-21T09:08:47.293Z,1059.00
2023-05-21T09:09:47.295Z,1068.00
2023-05-21T09:10:47.297Z,1064.00
2023-05-21T09:11:47.271Z,1038.00
2023-05-21T09:12:47.271Z,1041.00
2023-05-21T09:13:47.251Z,1040.00
2023-05-21T09:14:47.245Z,1039.00
2023-05-21T09:15:47.240Z,1044.00
2023-05-21T09:16:47.288Z,1024.00
2023-05-21T09:17:47.257Z,1022.00
2023-05-21T09:18:47.262Z,1015.00
2023-05-21T09:19:47.226Z,1002.00
2023-05-21T09:20:47.203Z,984.00
2023-05-21T09:21:47.219Z,983.00
2023-05-21T09:22:47.203Z,989.00
2023-05-21T09:23:47.210Z,980.00
2023-05-21T09:24:47.204Z,970.00
2023-05-21T09:25:47.286Z,949.00
2023-05-21T09:26:47.177Z,957.00
2023-05-21T09:27:47.185Z,938.00
2023-05-21T09:28:47.178Z,964.00
2023-05-21T09:29:47.180Z,965.00
2023-05-21T09:30:47.211Z,961.00
2023-05-21T09:31:47.371Z,972.00
2023-05-21T09:32:47.165Z,931.00
2023-05-21T09:33:47.131Z,930.00
2023-05-21T09:34:47.129Z,953.00
2023-05-21T09:35:47.136Z,935.00
2023-05-21T09:36:47.130Z,923.00
2023-05-21T09:37:47.250Z,950.00
2023-05-21T09:38:47.203Z,947.00
2023-05-21T09:39:47.255Z,943.00
2023-05-21T09:40:47.103Z,900.00
2023-05-21T09:41:47.098Z,887.00
2023-05-21T09:42:47.077Z,898.00
2023-05-21T09:43:47.096Z,928.00
2023-05-21T09:44:47.077Z,908.00
2023-05-21T09:45:47.065Z,900.00
2023-05-21T09:46:47.072Z,891.00
2023-05-21T09:47:47.126Z,894.00
2023-05-21T09:48:47.045Z,926.00
2023-05-21T09:49:47.037Z,926.00
2023-05-21T09:50:47.175Z,917.00
2023-05-21T09:51:47.125Z,923.00
2023-05-21T09:52:47.093Z,906.00
2023-05-21T09:53:47.018Z,893.00
2023-05-21T09:54:47.026Z,901.00
2023-05-21T09:55:46.995Z,901.00
2023-05-21T09:56:47.010Z,917.00
2023-05-21T09:57:49.098Z,888.00
2023-05-21T09:58:46.993Z,905.00
2023-05-21T09:59:46.974Z,876.00
2023-05-21T10:00:47.008Z,856.00
2023-05-21T10:01:47.017Z,828.00
2023-05-21T10:02:47.092Z,865.00
2023-05-21T10:03:48.678Z,863.00
2023-05-21T10:04:47.054Z,864.00
2023-05-21T10:05:46.941Z,819.00
2023-05-21T10:06:46.942Z,816.00
2023-05-21T10:07:46.940Z,808.00
2023-05-21T10:08:46.917Z,805.00
2023-05-21T10:09:46.939Z,757.00
2023-05-21T10:10:46.926Z,787.00
2023-05-21T10:11:46.957Z,698.00
2023-05-21T10:12:46.908Z,724.00
2023-05-21T10:13:46.995Z,706.00
2023-05-21T10:14:46.913Z,731.00
2023-05-21T10:15:48.288Z,716.00
2023-05-21T10:16:46.964Z,717.00
2023-05-21T10:17:46.899Z,718.00
2023-05-21T10:18:46.934Z,722.00
2023-05-21T10:19:46.868Z,694.00
2023-05-21T10:20:46.843Z,706.00
2023-05-21T10:21:46.863Z,729.00
2023-05-21T10:22:46.851Z,698.00
2023-05-21T10:23:46.845Z,655.00
2023-05-21T10:24:46.839Z,687.00
2023-05-21T10:25:46.811Z,709.00
2023-05-21T10:26:46.808Z,736.00
2023-05-21T10:27:46.801Z,730.00
2023-05-21T10:28:46.812Z,655.00
2023-05-21T10:29:46.794Z,678.00
2023-05-21T10:30:46.836Z,660.00
2023-05-21T10:31:46.844Z,625.00
2023-05-21T10:32:46.992Z,635.00
2023-05-21T10:33:46.766Z,650.00
2023-05-21T10:34:46.785Z,645.00
2023-05-21T10:35:46.781Z,621.00
2023-05-21T10:36:46.764Z,629.00
2023-05-21T10:37:46.752Z,650.00
2023-05-21T10:38:46.750Z,666.00
2023-05-21T10:39:46.745Z,657.00
2023-05-21T10:40:46.864Z,662.00
2023-05-21T10:41:46.870Z,629.00
2023-05-21T10:42:46.722Z,630.00
2023-05-21T10:43:46.709Z,647.00
2023-05-21T10:44:46.733Z,597.00
2023-05-21T10:45:46.726Z,617.00
2023-05-21T10:46:46.840Z,636.00
2023-05-21T10:47:46.803Z,635.00
2023-05-21T10:48:46.680Z,594.00
2023-05-21T10:49:46.659Z,598.00
2023-05-21T10:50:46.702Z,601.00
2023-05-21T10:51:46.645Z,595.00
2023-05-21T10:52:46.644Z,620.00
2023-05-21T10:53:46.656Z,619.00
2023-05-21T10:54:46.628Z,600.00
2023-05-21T10:55:46.649Z,599.00
2023-05-21T10:56:46.632Z,617.00
2023-05-21T10:57:46.633Z,604.00
2023-05-21T10:58:46.624Z,595.00
2023-05-21T10:59:46.603Z,609.00
2023-05-21T11:00:46.614Z,612.00
2023-05-21T11:01:46.728Z,610.00
2023-05-21T11:02:46.667Z,580.00
2023-05-21T11:03:46.613Z,588.00
2023-05-21T11:04:46.571Z,606.00
2023-05-21T11:05:46.596Z,591.00
2023-05-21T11:06:46.587Z,591.00
2023-05-21T11:07:46.564Z,593.00
2023-05-21T11:08:46.536Z,581.00
2023-05-21T11:09:46.537Z,555.00
2023-05-21T11:10:46.620Z,550.00
2023-05-21T11:11:46.592Z,545.00
2023-05-21T11:12:46.522Z,564.00
2023-05-21T11:13:46.645Z,551.00
2023-05-21T11:14:46.505Z,578.00
2023-05-21T11:15:46.513Z,541.00
2023-05-21T11:16:46.666Z,549.00
2023-05-21T11:17:46.513Z,564.00
2023-05-21T11:18:46.513Z,517.00
2023-05-21T11:19:46.460Z,549.00
2023-05-21T11:20:46.468Z,544.00
2023-05-21T11:21:46.449Z,536.00
2023-05-21T11:22:46.439Z,528.00
2023-05-21T11:23:46.446Z,548.00
2023-05-21T11:24:47.429Z,563.00
2023-05-21T11:25:46.420Z,510.00
2023-05-21T11:26:46.429Z,524.00
2023-05-21T11:27:46.409Z,561.00
2023-05-21T11:28:46.419Z,565.00
2023-05-21T11:29:46.405Z,555.00
2023-05-21T11:31:46.621Z,520.00
2023-05-21T11:32:46.558Z,542.00
2023-05-21T11:33:46.463Z,554.00
2023-05-21T11:34:46.504Z,547.00
2023-05-21T11:35:46.574Z,520.00
2023-05-21T11:36:46.549Z,522.00
2023-05-21T11:37:46.596Z,504.00
2023-05-21T11:38:46.596Z,499.00
2023-05-21T11:39:46.661Z,504.00
2023-05-21T11:40:46.672Z,516.00
2023-05-21T11:41:46.682Z,532.00
2023-05-21T11:42:46.819Z,529.00
2023-05-21T11:43:46.750Z,518.00
2023-05-21T11:44:46.806Z,521.00
2023-05-21T11:45:46.838Z,499.00
2023-05-21T11:46:46.923Z,529.00
2023-05-21T11:47:47.009Z,560.00
2023-05-21T11:48:46.956Z,507.00
2023-05-21T11:49:46.990Z,538.00
2023-05-21T11:50:47.007Z,548.00
2023-05-21T11:51:47.027Z,574.00
2023-05-21T11:52:47.203Z,566.00
2023-05-21T11:53:47.087Z,537.00
2023-05-21T11:54:47.113Z,560.00
2023-05-21T11:55:47.146Z,512.00
2023-05-21T11:56:47.161Z,561.00
2023-05-21T11:57:47.193Z,552.00
2023-05-21T11:58:47.224Z,531.00
2023-05-21T11:59:47.242Z,536.00
2023-05-21T12:00:47.257Z,500.00
2023-05-21T12:01:47.296Z,500.00
2023-05-21T12:02:47.526Z,538.00
2023-05-21T12:03:47.464Z,516.00
2023-05-21T12:04:47.521Z,530.00
2023-05-21T12:05:47.481Z,526.00
2023-05-21T12:06:47.502Z,551.00
2023-05-21T12:07:47.544Z,543.00
2023-05-21T12:08:47.587Z,527.00
2023-05-21T12:09:47.603Z,500.00
2023-05-21T12:10:47.605Z,500.00
2023-05-21T12:11:47.639Z,524.00
2023-05-21T12:12:55.480Z,538.00